sensor_id;sensor_type;location;lat;lon;timestamp;pressure;altitude;pressure_sealevel;temperature;humidity
76728;BME280;65652;53.132;18.026;2023-03-05T00:01:31;100758.89;;;-2.13;53.06
76728;BME280;65652;53.132;18.026;2023-03-05T00:04:02;100757.78;;;-2.16;53.35
76728;BME280;65652;53.132;18.026;2023-03-05T00:06:30;100753.92;;;-2.20;53.22
76728;BME280;65652;53.132;18.026;2023-03-05T00:08:57;100753.17;;;-2.23;53.26
76728;BME280;65652;53.132;18.026;2023-03-05T00:11:25;100752.23;;;-2.26;53.63
76728;BME280;65652;53.132;18.026;2023-03-05T00:13:53;100748.35;;;-2.28;53.41
76728;BME280;65652;53.132;18.026;2023-03-05T00:16:21;100747.54;;;-2.30;53.72
76728;BME280;65652;53.132;18.026;2023-03-05T00:18:48;100744.98;;;-2.31;53.97
76728;BME280;65652;53.132;18.026;2023-03-05T00:23:52;100743.71;;;-2.34;53.85
76728;BME280;65652;53.132;18.026;2023-03-05T00:26:20;100734.95;;;-2.37;54.14
76728;BME280;65652;53.132;18.026;2023-03-05T00:28:48;100731.56;;;-2.38;53.97
76728;BME280;65652;53.132;18.026;2023-03-05T00:31:17;100730.79;;;-2.40;54.36
76728;BME280;65652;53.132;18.026;2023-03-05T00:33:43;100730.39;;;-2.44;54.40
76728;BME280;65652;53.132;18.026;2023-03-05T00:36:10;100724.22;;;-2.46;54.51
76728;BME280;65652;53.132;18.026;2023-03-05T00:38:38;100721.33;;;-2.48;54.86
76728;BME280;65652;53.132;18.026;2023-03-05T00:41:04;100719.44;;;-2.48;54.96
76728;BME280;65652;53.132;18.026;2023-03-05T00:43:30;100713.76;;;-2.48;54.88
76728;BME280;65652;53.132;18.026;2023-03-05T00:45:56;100715.67;;;-2.49;55.13
76728;BME280;65652;53.132;18.026;2023-03-05T00:48:22;100711.72;;;-2.49;54.91
76728;BME280;65652;53.132;18.026;2023-03-05T00:50:50;100709.45;;;-2.49;55.13
76728;BME280;65652;53.132;18.026;2023-03-05T00:53:17;100711.33;;;-2.48;55.26
76728;BME280;65652;53.132;18.026;2023-03-05T00:55:43;100710.76;;;-2.47;55.46
76728;BME280;65652;53.132;18.026;2023-03-05T00:58:10;100705.41;;;-2.47;55.69
76728;BME280;65652;53.132;18.026;2023-03-05T01:00:36;100700.38;;;-2.47;55.96
76728;BME280;65652;53.132;18.026;2023-03-05T01:03:02;100699.84;;;-2.46;55.83
76728;BME280;65652;53.132;18.026;2023-03-05T01:05:29;100698.39;;;-2.44;55.86
76728;BME280;65652;53.132;18.026;2023-03-05T01:07:56;100695.40;;;-2.42;56.41
76728;BME280;65652;53.132;18.026;2023-03-05T01:10:23;100692.94;;;-2.41;56.50
76728;BME280;65652;53.132;18.026;2023-03-05T01:12:55;100688.88;;;-2.39;56.29
76728;BME280;65652;53.132;18.026;2023-03-05T01:15:23;100684.35;;;-2.37;56.79
76728;BME280;65652;53.132;18.026;2023-03-05T01:17:49;100682.41;;;-2.37;56.76
76728;BME280;65652;53.132;18.026;2023-03-05T01:20:18;100680.85;;;-2.37;56.87
76728;BME280;65652;53.132;18.026;2023-03-05T01:22:45;100681.34;;;-2.35;57.05
76728;BME280;65652;53.132;18.026;2023-03-05T01:25:12;100680.27;;;-2.34;56.98
76728;BME280;65652;53.132;18.026;2023-03-05T01:27:38;100680.89;;;-2.32;56.89
76728;BME280;65652;53.132;18.026;2023-03-05T01:30:05;100680.66;;;-2.32;57.07
76728;BME280;65652;53.132;18.026;2023-03-05T01:32:33;100678.19;;;-2.30;56.76
76728;BME280;65652;53.132;18.026;2023-03-05T01:35:01;100675.92;;;-2.29;57.26
76728;BME280;65652;53.132;18.026;2023-03-05T01:37:27;100671.60;;;-2.29;57.38
76728;BME280;65652;53.132;18.026;2023-03-05T01:39:53;100667.44;;;-2.29;57.29
76728;BME280;65652;53.132;18.026;2023-03-05T01:42:20;100665.15;;;-2.28;57.32
76728;BME280;65652;53.132;18.026;2023-03-05T01:45:06;100660.08;;;-2.26;57.28
76728;BME280;65652;53.132;18.026;2023-03-05T01:47:35;100657.58;;;-2.24;57.63
76728;BME280;65652;53.132;18.026;2023-03-05T01:50:06;100657.02;;;-2.23;57.49
76728;BME280;65652;53.132;18.026;2023-03-05T01:52:36;100651.76;;;-2.20;57.74
76728;BME280;65652;53.132;18.026;2023-03-05T01:55:08;100648.91;;;-2.19;57.99
76728;BME280;65652;53.132;18.026;2023-03-05T01:57:40;100646.46;;;-2.18;58.16
76728;BME280;65652;53.132;18.026;2023-03-05T02:00:12;100646.09;;;-2.18;58.38
76728;BME280;65652;53.132;18.026;2023-03-05T02:02:41;100644.48;;;-2.17;58.28
76728;BME280;65652;53.132;18.026;2023-03-05T02:05:31;100643.27;;;-2.17;58.46
76728;BME280;65652;53.132;18.026;2023-03-05T02:08:03;100642.36;;;-2.15;58.51
76728;BME280;65652;53.132;18.026;2023-03-05T02:10:36;100639.23;;;-2.14;58.60
76728;BME280;65652;53.132;18.026;2023-03-05T02:13:06;100637.29;;;-2.13;58.36
76728;BME280;65652;53.132;18.026;2023-03-05T02:15:34;100637.64;;;-2.13;58.80
76728;BME280;65652;53.132;18.026;2023-03-05T02:18:00;100633.83;;;-2.13;58.71
76728;BME280;65652;53.132;18.026;2023-03-05T02:20:30;100632.75;;;-2.12;58.70
76728;BME280;65652;53.132;18.026;2023-03-05T02:22:56;100629.27;;;-2.11;58.56
76728;BME280;65652;53.132;18.026;2023-03-05T02:25:26;100624.03;;;-2.10;58.68
76728;BME280;65652;53.132;18.026;2023-03-05T02:27:59;100620.39;;;-2.10;58.90
76728;BME280;65652;53.132;18.026;2023-03-05T02:30:27;100617.27;;;-2.10;59.17
76728;BME280;65652;53.132;18.026;2023-03-05T02:32:54;100615.86;;;-2.09;59.01
76728;BME280;65652;53.132;18.026;2023-03-05T02:35:20;100613.29;;;-2.09;59.09
76728;BME280;65652;53.132;18.026;2023-03-05T02:37:47;100610.86;;;-2.09;59.04
76728;BME280;65652;53.132;18.026;2023-03-05T02:40:13;100600.49;;;-2.10;59.58
76728;BME280;65652;53.132;18.026;2023-03-05T02:42:40;100596.23;;;-2.11;59.02
76728;BME280;65652;53.132;18.026;2023-03-05T02:45:08;100593.41;;;-2.10;59.42
76728;BME280;65652;53.132;18.026;2023-03-05T02:47:35;100592.22;;;-2.10;59.48
76728;BME280;65652;53.132;18.026;2023-03-05T02:50:02;100589.30;;;-2.11;59.46
76728;BME280;65652;53.132;18.026;2023-03-05T02:52:28;100587.40;;;-2.11;59.41
76728;BME280;65652;53.132;18.026;2023-03-05T02:54:54;100587.39;;;-2.11;59.54
76728;BME280;65652;53.132;18.026;2023-03-05T02:57:23;100584.31;;;-2.12;59.68
76728;BME280;65652;53.132;18.026;2023-03-05T02:59:49;100581.91;;;-2.12;59.69
76728;BME280;65652;53.132;18.026;2023-03-05T03:02:16;100578.41;;;-2.11;60.14
76728;BME280;65652;53.132;18.026;2023-03-05T03:04:43;100574.77;;;-2.11;60.23
76728;BME280;65652;53.132;18.026;2023-03-05T03:07:10;100572.14;;;-2.10;60.14
76728;BME280;65652;53.132;18.026;2023-03-05T03:09:36;100565.52;;;-2.09;60.08
76728;BME280;65652;53.132;18.026;2023-03-05T03:12:04;100547.95;;;-2.06;60.11
76728;BME280;65652;53.132;18.026;2023-03-05T03:14:36;100539.70;;;-2.03;60.32
76728;BME280;65652;53.132;18.026;2023-03-05T03:17:09;100540.62;;;-2.01;60.35
76728;BME280;65652;53.132;18.026;2023-03-05T03:19:36;100551.62;;;-1.98;60.30
76728;BME280;65652;53.132;18.026;2023-03-05T03:22:02;100546.02;;;-1.96;60.41
76728;BME280;65652;53.132;18.026;2023-03-05T03:24:30;100542.80;;;-1.94;60.20
76728;BME280;65652;53.132;18.026;2023-03-05T03:26:56;100539.79;;;-1.92;60.40
76728;BME280;65652;53.132;18.026;2023-03-05T03:29:23;100547.48;;;-1.90;60.24
76728;BME280;65652;53.132;18.026;2023-03-05T03:31:49;100551.52;;;-1.87;60.45
76728;BME280;65652;53.132;18.026;2023-03-05T03:34:16;100547.61;;;-1.84;60.35
76728;BME280;65652;53.132;18.026;2023-03-05T03:36:43;100550.27;;;-1.81;60.54
76728;BME280;65652;53.132;18.026;2023-03-05T03:39:10;100539.64;;;-1.79;60.69
76728;BME280;65652;53.132;18.026;2023-03-05T03:41:41;100537.86;;;-1.78;61.04
76728;BME280;65652;53.132;18.026;2023-03-05T03:44:07;100536.08;;;-1.77;60.87
76728;BME280;65652;53.132;18.026;2023-03-05T03:46:39;100534.29;;;-1.76;60.91
76728;BME280;65652;53.132;18.026;2023-03-05T03:49:06;100530.95;;;-1.74;61.17
76728;BME280;65652;53.132;18.026;2023-03-05T03:51:35;100529.46;;;-1.72;60.99
76728;BME280;65652;53.132;18.026;2023-03-05T03:54:02;100525.73;;;-1.69;60.93
76728;BME280;65652;53.132;18.026;2023-03-05T03:56:28;100516.31;;;-1.67;60.68
76728;BME280;65652;53.132;18.026;2023-03-05T03:58:54;100516.36;;;-1.64;60.70
76728;BME280;65652;53.132;18.026;2023-03-05T04:01:20;100504.82;;;-1.62;60.90
76728;BME280;65652;53.132;18.026;2023-03-05T04:03:47;100505.73;;;-1.58;60.83
76728;BME280;65652;53.132;18.026;2023-03-05T04:06:13;100502.73;;;-1.57;60.69
76728;BME280;65652;53.132;18.026;2023-03-05T04:08:39;100495.36;;;-1.55;61.04
76728;BME280;65652;53.132;18.026;2023-03-05T04:11:06;100486.80;;;-1.52;60.80
76728;BME280;65652;53.132;18.026;2023-03-05T04:13:32;100481.48;;;-1.50;60.68
76728;BME280;65652;53.132;18.026;2023-03-05T04:15:58;100471.88;;;-1.47;60.82
76728;BME280;65652;53.132;18.026;2023-03-05T04:18:25;100473.48;;;-1.45;60.47
76728;BME280;65652;53.132;18.026;2023-03-05T04:20:51;100475.09;;;-1.42;60.72
76728;BME280;65652;53.132;18.026;2023-03-05T04:23:17;100472.64;;;-1.41;60.58
76728;BME280;65652;53.132;18.026;2023-03-05T04:25:43;100473.04;;;-1.38;60.76
76728;BME280;65652;53.132;18.026;2023-03-05T04:28:10;100483.67;;;-1.36;60.79
76728;BME280;65652;53.132;18.026;2023-03-05T04:30:37;100479.84;;;-1.35;60.87
76728;BME280;65652;53.132;18.026;2023-03-05T04:33:03;100478.26;;;-1.35;61.02
76728;BME280;65652;53.132;18.026;2023-03-05T04:35:30;100481.21;;;-1.36;60.83
76728;BME280;65652;53.132;18.026;2023-03-05T04:37:56;100483.58;;;-1.34;60.92
76728;BME280;65652;53.132;18.026;2023-03-05T04:40:23;100480.45;;;-1.34;60.87
76728;BME280;65652;53.132;18.026;2023-03-05T04:42:49;100474.31;;;-1.32;60.83
76728;BME280;65652;53.132;18.026;2023-03-05T04:45:15;100469.90;;;-1.30;60.80
76728;BME280;65652;53.132;18.026;2023-03-05T04:47:42;100471.19;;;-1.27;60.77
76728;BME280;65652;53.132;18.026;2023-03-05T04:50:10;100462.10;;;-1.26;60.74
76728;BME280;65652;53.132;18.026;2023-03-05T04:52:39;100454.58;;;-1.24;60.83
76728;BME280;65652;53.132;18.026;2023-03-05T04:55:06;100460.53;;;-1.22;60.72
76728;BME280;65652;53.132;18.026;2023-03-05T04:57:32;100460.29;;;-1.20;60.88
76728;BME280;65652;53.132;18.026;2023-03-05T04:59:59;100445.17;;;-1.19;60.94
76728;BME280;65652;53.132;18.026;2023-03-05T05:02:26;100451.38;;;-1.18;60.92
76728;BME280;65652;53.132;18.026;2023-03-05T05:04:53;100451.05;;;-1.18;61.34
76728;BME280;65652;53.132;18.026;2023-03-05T05:07:20;100447.20;;;-1.18;61.12
76728;BME280;65652;53.132;18.026;2023-03-05T05:09:46;100447.71;;;-1.17;61.31
76728;BME280;65652;53.132;18.026;2023-03-05T05:12:12;100445.23;;;-1.17;61.34
76728;BME280;65652;53.132;18.026;2023-03-05T05:14:38;100443.48;;;-1.16;61.42
76728;BME280;65652;53.132;18.026;2023-03-05T05:17:05;100444.59;;;-1.13;61.34
76728;BME280;65652;53.132;18.026;2023-03-05T05:19:32;100442.55;;;-1.11;61.48
76728;BME280;65652;53.132;18.026;2023-03-05T05:21:59;100443.88;;;-1.09;61.74
76728;BME280;65652;53.132;18.026;2023-03-05T05:24:25;100441.15;;;-1.10;61.63
76728;BME280;65652;53.132;18.026;2023-03-05T05:26:54;100442.81;;;-1.08;61.68
76728;BME280;65652;53.132;18.026;2023-03-05T05:29:22;100443.94;;;-1.07;61.67
76728;BME280;65652;53.132;18.026;2023-03-05T05:31:48;100443.20;;;-1.06;61.80
76728;BME280;65652;53.132;18.026;2023-03-05T05:34:14;100442.98;;;-1.05;61.76
76728;BME280;65652;53.132;18.026;2023-03-05T05:36:41;100439.95;;;-1.02;62.00
76728;BME280;65652;53.132;18.026;2023-03-05T05:39:07;100435.41;;;-1.02;61.95
76728;BME280;65652;53.132;18.026;2023-03-05T05:41:33;100436.52;;;-1.00;61.93
76728;BME280;65652;53.132;18.026;2023-03-05T05:43:59;100436.41;;;-0.97;62.11
76728;BME280;65652;53.132;18.026;2023-03-05T05:46:25;100441.48;;;-0.94;62.51
76728;BME280;65652;53.132;18.026;2023-03-05T05:48:52;100444.23;;;-0.94;62.74
76728;BME280;65652;53.132;18.026;2023-03-05T05:51:21;100441.06;;;-0.93;62.87
76728;BME280;65652;53.132;18.026;2023-03-05T05:53:48;100440.80;;;-0.91;63.16
76728;BME280;65652;53.132;18.026;2023-03-05T05:56:15;100448.39;;;-0.90;63.72
76728;BME280;65652;53.132;18.026;2023-03-05T05:58:42;100445.55;;;-0.88;64.02
76728;BME280;65652;53.132;18.026;2023-03-05T06:01:21;100443.98;;;-0.88;64.08
76728;BME280;65652;53.132;18.026;2023-03-05T06:03:48;100447.84;;;-0.86;64.47
76728;BME280;65652;53.132;18.026;2023-03-05T06:06:17;100442.32;;;-0.86;64.74
76728;BME280;65652;53.132;18.026;2023-03-05T06:08:44;100443.44;;;-0.83;64.79
76728;BME280;65652;53.132;18.026;2023-03-05T06:11:10;100445.82;;;-0.83;65.27
76728;BME280;65652;53.132;18.026;2023-03-05T06:13:37;100446.83;;;-0.82;65.15
76728;BME280;65652;53.132;18.026;2023-03-05T06:16:06;100445.56;;;-0.81;65.61
76728;BME280;65652;53.132;18.026;2023-03-05T06:18:33;100442.63;;;-0.81;65.71
76728;BME280;65652;53.132;18.026;2023-03-05T06:21:02;100447.33;;;-0.82;66.19
76728;BME280;65652;53.132;18.026;2023-03-05T06:23:29;100445.75;;;-0.82;66.17
76728;BME280;65652;53.132;18.026;2023-03-05T06:26:00;100440.65;;;-0.84;67.54
76728;BME280;65652;53.132;18.026;2023-03-05T06:28:27;100440.13;;;-0.87;67.36
76728;BME280;65652;53.132;18.026;2023-03-05T06:31:05;100436.67;;;-0.87;67.79
76728;BME280;65652;53.132;18.026;2023-03-05T06:33:34;100435.65;;;-0.92;68.39
76728;BME280;65652;53.132;18.026;2023-03-05T06:36:08;100435.70;;;-0.93;68.55
76728;BME280;65652;53.132;18.026;2023-03-05T06:38:35;100441.05;;;-0.92;68.61
76728;BME280;65652;53.132;18.026;2023-03-05T06:41:08;100443.38;;;-0.90;68.56
76728;BME280;65652;53.132;18.026;2023-03-05T06:43:36;100442.45;;;-0.89;69.37
76728;BME280;65652;53.132;18.026;2023-03-05T06:46:07;100444.52;;;-0.92;69.88
76728;BME280;65652;53.132;18.026;2023-03-05T06:48:34;100439.66;;;-0.96;70.52
76728;BME280;65652;53.132;18.026;2023-03-05T06:51:00;100445.02;;;-1.00;71.23
76728;BME280;65652;53.132;18.026;2023-03-05T06:53:26;100446.98;;;-1.01;70.65
76728;BME280;65652;53.132;18.026;2023-03-05T06:55:53;100445.48;;;-0.98;70.59
76728;BME280;65652;53.132;18.026;2023-03-05T06:58:19;100442.80;;;-0.97;70.78
76728;BME280;65652;53.132;18.026;2023-03-05T07:00:46;100444.23;;;-0.93;70.81
76728;BME280;65652;53.132;18.026;2023-03-05T07:03:12;100442.17;;;-0.91;70.77
76728;BME280;65652;53.132;18.026;2023-03-05T07:05:40;100441.31;;;-0.87;70.90
76728;BME280;65652;53.132;18.026;2023-03-05T07:08:07;100435.80;;;-0.84;70.91
76728;BME280;65652;53.132;18.026;2023-03-05T07:10:38;100438.23;;;-0.80;70.86
76728;BME280;65652;53.132;18.026;2023-03-05T07:13:06;100435.98;;;-0.76;70.88
76728;BME280;65652;53.132;18.026;2023-03-05T07:15:32;100436.66;;;-0.72;70.91
76728;BME280;65652;53.132;18.026;2023-03-05T07:17:59;100436.92;;;-0.67;70.83
76728;BME280;65652;53.132;18.026;2023-03-05T07:20:25;100434.40;;;-0.61;70.79
76728;BME280;65652;53.132;18.026;2023-03-05T07:22:52;100431.18;;;-0.59;70.68
76728;BME280;65652;53.132;18.026;2023-03-05T07:25:18;100436.05;;;-0.55;70.76
76728;BME280;65652;53.132;18.026;2023-03-05T07:27:47;100431.56;;;-0.52;70.70
76728;BME280;65652;53.132;18.026;2023-03-05T07:30:14;100433.25;;;-0.47;70.76
76728;BME280;65652;53.132;18.026;2023-03-05T07:32:40;100429.88;;;-0.45;70.76
76728;BME280;65652;53.132;18.026;2023-03-05T07:35:07;100431.27;;;-0.46;70.88
76728;BME280;65652;53.132;18.026;2023-03-05T07:37:33;100433.08;;;-0.43;70.87
76728;BME280;65652;53.132;18.026;2023-03-05T07:39:59;100433.48;;;-0.41;70.89
76728;BME280;65652;53.132;18.026;2023-03-05T07:42:26;100433.09;;;-0.40;70.70
76728;BME280;65652;53.132;18.026;2023-03-05T07:44:56;100431.64;;;-0.39;70.95
76728;BME280;65652;53.132;18.026;2023-03-05T07:47:22;100428.19;;;-0.35;70.92
76728;BME280;65652;53.132;18.026;2023-03-05T07:49:49;100422.63;;;-0.32;70.88
76728;BME280;65652;53.132;18.026;2023-03-05T07:52:15;100422.92;;;-0.27;70.93
76728;BME280;65652;53.132;18.026;2023-03-05T07:54:41;100422.98;;;-0.24;71.02
76728;BME280;65652;53.132;18.026;2023-03-05T07:57:09;100426.01;;;-0.22;71.09
76728;BME280;65652;53.132;18.026;2023-03-05T07:59:37;100426.66;;;-0.18;70.96
76728;BME280;65652;53.132;18.026;2023-03-05T08:02:03;100428.81;;;-0.16;70.94
76728;BME280;65652;53.132;18.026;2023-03-05T08:04:29;100424.50;;;-0.13;71.06
76728;BME280;65652;53.132;18.026;2023-03-05T08:06:58;100421.16;;;-0.12;71.31
76728;BME280;65652;53.132;18.026;2023-03-05T08:09:24;100426.55;;;-0.16;71.50
76728;BME280;65652;53.132;18.026;2023-03-05T08:11:50;100415.52;;;-0.17;71.59
76728;BME280;65652;53.132;18.026;2023-03-05T08:14:16;100420.10;;;-0.11;71.60
76728;BME280;65652;53.132;18.026;2023-03-05T08:16:43;100418.80;;;-0.13;71.99
76728;BME280;65652;53.132;18.026;2023-03-05T08:19:09;100421.44;;;-0.17;71.96
76728;BME280;65652;53.132;18.026;2023-03-05T08:21:36;100414.84;;;-0.14;71.94
76728;BME280;65652;53.132;18.026;2023-03-05T08:24:05;100414.21;;;-0.11;71.98
76728;BME280;65652;53.132;18.026;2023-03-05T08:26:33;100415.52;;;-0.11;72.09
76728;BME280;65652;53.132;18.026;2023-03-05T08:29:00;100414.41;;;-0.09;71.96
76728;BME280;65652;53.132;18.026;2023-03-05T08:31:27;100408.42;;;-0.00;71.76
76728;BME280;65652;53.132;18.026;2023-03-05T08:33:56;100408.08;;;0.14;71.56
76728;BME280;65652;53.132;18.026;2023-03-05T08:36:23;100402.64;;;0.26;71.42
76728;BME280;65652;53.132;18.026;2023-03-05T08:38:49;100399.31;;;0.40;71.17
76728;BME280;65652;53.132;18.026;2023-03-05T08:41:17;100399.01;;;0.52;70.92
76728;BME280;65652;53.132;18.026;2023-03-05T08:43:44;100397.71;;;0.61;70.56
76728;BME280;65652;53.132;18.026;2023-03-05T08:46:12;100395.08;;;0.62;70.33
76728;BME280;65652;53.132;18.026;2023-03-05T08:48:39;100391.73;;;0.66;70.30
76728;BME280;65652;53.132;18.026;2023-03-05T08:51:10;100394.24;;;0.74;70.49
76728;BME280;65652;53.132;18.026;2023-03-05T08:53:38;100388.59;;;0.82;70.04
76728;BME280;65652;53.132;18.026;2023-03-05T08:56:05;100379.91;;;0.89;69.50
76728;BME280;65652;53.132;18.026;2023-03-05T08:58:31;100381.04;;;0.93;69.18
76728;BME280;65652;53.132;18.026;2023-03-05T09:00:58;100376.84;;;1.00;68.84
76728;BME280;65652;53.132;18.026;2023-03-05T09:03:24;100370.25;;;1.06;68.77
76728;BME280;65652;53.132;18.026;2023-03-05T09:05:51;100368.92;;;1.05;68.39
76728;BME280;65652;53.132;18.026;2023-03-05T09:08:17;100367.42;;;1.04;68.62
76728;BME280;65652;53.132;18.026;2023-03-05T09:10:44;100364.34;;;1.06;68.65
76728;BME280;65652;53.132;18.026;2023-03-05T09:13:11;100359.91;;;1.11;68.59
76728;BME280;65652;53.132;18.026;2023-03-05T09:15:37;100355.49;;;1.22;68.52
76728;BME280;65652;53.132;18.026;2023-03-05T09:18:04;100347.79;;;1.33;68.31
76728;BME280;65652;53.132;18.026;2023-03-05T09:20:31;100342.98;;;1.38;68.21
76728;BME280;65652;53.132;18.026;2023-03-05T09:22:58;100346.61;;;1.54;68.04
76728;BME280;65652;53.132;18.026;2023-03-05T09:25:25;100349.91;;;1.66;67.98
76728;BME280;65652;53.132;18.026;2023-03-05T09:27:51;100349.08;;;1.74;68.03
76728;BME280;65652;53.132;18.026;2023-03-05T09:30:18;100348.70;;;1.96;68.16
76728;BME280;65652;53.132;18.026;2023-03-05T09:32:44;100350.44;;;2.11;67.51
76728;BME280;65652;53.132;18.026;2023-03-05T09:35:10;100342.59;;;2.23;67.49
76728;BME280;65652;53.132;18.026;2023-03-05T09:37:36;100335.57;;;2.44;67.36
76728;BME280;65652;53.132;18.026;2023-03-05T09:40:03;100335.66;;;2.66;66.93
76728;BME280;65652;53.132;18.026;2023-03-05T09:45:29;100339.16;;;2.82;66.76
76728;BME280;65652;53.132;18.026;2023-03-05T09:48:17;100340.33;;;3.03;66.56
76728;BME280;65652;53.132;18.026;2023-03-05T09:55:55;100330.11;;;3.18;65.68
76728;BME280;65652;53.132;18.026;2023-03-05T10:01:07;100329.30;;;3.09;65.32
76728;BME280;65652;53.132;18.026;2023-03-05T10:03:47;100329.81;;;2.98;65.48
76728;BME280;65652;53.132;18.026;2023-03-05T10:06:28;100333.63;;;2.95;65.82
76728;BME280;65652;53.132;18.026;2023-03-05T10:11:54;100329.67;;;2.89;64.82
76728;BME280;65652;53.132;18.026;2023-03-05T10:22:47;100323.48;;;2.54;64.83
76728;BME280;65652;53.132;18.026;2023-03-05T10:28:15;100320.38;;;2.39;65.02
76728;BME280;65652;53.132;18.026;2023-03-05T10:42:09;100317.27;;;2.06;65.42
76728;BME280;65652;53.132;18.026;2023-03-05T10:44:58;100315.34;;;2.07;65.70
76728;BME280;65652;53.132;18.026;2023-03-05T10:47:46;100312.33;;;2.08;65.70
76728;BME280;65652;53.132;18.026;2023-03-05T10:53:09;100318.31;;;2.07;65.81
76728;BME280;65652;53.132;18.026;2023-03-05T10:55:38;100317.89;;;2.05;66.01
76728;BME280;65652;53.132;18.026;2023-03-05T10:58:12;100315.15;;;2.04;66.11
76728;BME280;65652;53.132;18.026;2023-03-05T11:00:40;100318.02;;;2.02;66.15
76728;BME280;65652;53.132;18.026;2023-03-05T11:03:22;100315.36;;;2.00;66.35
76728;BME280;65652;53.132;18.026;2023-03-05T11:05:59;100313.77;;;1.98;66.34
76728;BME280;65652;53.132;18.026;2023-03-05T11:11:10;100316.82;;;1.99;66.63
76728;BME280;65652;53.132;18.026;2023-03-05T11:16:23;100309.29;;;2.00;66.54
76728;BME280;65652;53.132;18.026;2023-03-05T11:18:49;100312.51;;;1.96;66.35
76728;BME280;65652;53.132;18.026;2023-03-05T11:21:25;100312.86;;;1.92;66.49
76728;BME280;65652;53.132;18.026;2023-03-05T11:24:11;100312.58;;;1.91;66.52
76728;BME280;65652;53.132;18.026;2023-03-05T11:26:50;100311.00;;;1.89;66.67
76728;BME280;65652;53.132;18.026;2023-03-05T11:29:26;100309.77;;;1.80;66.48
76728;BME280;65652;53.132;18.026;2023-03-05T11:31:53;100307.52;;;1.71;66.68
76728;BME280;65652;53.132;18.026;2023-03-05T11:39:20;100305.23;;;1.53;66.64
76728;BME280;65652;53.132;18.026;2023-03-05T11:42:10;100308.45;;;1.51;66.44
76728;BME280;65652;53.132;18.026;2023-03-05T11:44:45;100303.21;;;1.49;66.22
76728;BME280;65652;53.132;18.026;2023-03-05T11:47:19;100306.63;;;1.47;66.27
76728;BME280;65652;53.132;18.026;2023-03-05T11:49:50;100298.98;;;1.47;66.25
76728;BME280;65652;53.132;18.026;2023-03-05T11:52:28;100302.84;;;1.43;66.07
76728;BME280;65652;53.132;18.026;2023-03-05T11:55:07;100296.80;;;1.36;66.12
76728;BME280;65652;53.132;18.026;2023-03-05T12:00:30;100295.15;;;1.44;66.25
76728;BME280;65652;53.132;18.026;2023-03-05T12:02:58;100294.70;;;1.52;66.15
76728;BME280;65652;53.132;18.026;2023-03-05T12:05:27;100287.63;;;1.60;66.13
76728;BME280;65652;53.132;18.026;2023-03-05T12:07:58;100290.25;;;1.65;66.03
76728;BME280;65652;53.132;18.026;2023-03-05T12:10:26;100286.06;;;1.71;66.01
76728;BME280;65652;53.132;18.026;2023-03-05T12:13:06;100285.67;;;1.76;66.11
76728;BME280;65652;53.132;18.026;2023-03-05T12:16:05;100278.83;;;1.82;65.94
76728;BME280;65652;53.132;18.026;2023-03-05T12:19:11;100277.95;;;1.85;66.07
76728;BME280;65652;53.132;18.026;2023-03-05T12:21:42;100272.91;;;1.97;65.80
76728;BME280;65652;53.132;18.026;2023-03-05T12:32:02;100256.14;;;2.15;65.50
76728;BME280;65652;53.132;18.026;2023-03-05T12:47:43;100242.36;;;5.13;62.35
76728;BME280;65652;53.132;18.026;2023-03-05T12:52:56;100229.98;;;6.69;60.48
76728;BME280;65652;53.132;18.026;2023-03-05T12:55:27;100227.45;;;7.20;58.86
76728;BME280;65652;53.132;18.026;2023-03-05T12:58:04;100223.67;;;7.53;57.44
76728;BME280;65652;53.132;18.026;2023-03-05T13:01:00;100225.70;;;7.60;56.36
76728;BME280;65652;53.132;18.026;2023-03-05T13:03:34;100222.36;;;7.64;56.40
76728;BME280;65652;53.132;18.026;2023-03-05T13:06:02;100220.36;;;7.69;54.83
76728;BME280;65652;53.132;18.026;2023-03-05T13:08:33;100217.19;;;7.59;54.01
76728;BME280;65652;53.132;18.026;2023-03-05T13:11:04;100215.21;;;7.68;55.30
76728;BME280;65652;53.132;18.026;2023-03-05T13:13:40;100216.73;;;7.77;55.47
76728;BME280;65652;53.132;18.026;2023-03-05T13:16:27;100220.64;;;7.95;54.69
76728;BME280;65652;53.132;18.026;2023-03-05T13:18:57;100221.39;;;8.07;53.05
76728;BME280;65652;53.132;18.026;2023-03-05T13:21:30;100218.45;;;8.06;52.77
76728;BME280;65652;53.132;18.026;2023-03-05T13:23:59;100221.67;;;8.12;53.78
76728;BME280;65652;53.132;18.026;2023-03-05T13:26:39;100227.55;;;8.25;53.27
76728;BME280;65652;53.132;18.026;2023-03-05T13:29:12;100232.85;;;8.44;51.85
76728;BME280;65652;53.132;18.026;2023-03-05T13:31:42;100227.24;;;8.35;51.75
76728;BME280;65652;53.132;18.026;2023-03-05T13:34:16;100222.52;;;8.23;51.46
76728;BME280;65652;53.132;18.026;2023-03-05T13:36:45;100225.33;;;8.89;51.65
76728;BME280;65652;53.132;18.026;2023-03-05T13:39:33;100215.19;;;9.98;50.25
76728;BME280;65652;53.132;18.026;2023-03-05T13:42:05;100210.58;;;10.86;48.38
76728;BME280;65652;53.132;18.026;2023-03-05T13:44:33;100213.02;;;10.68;47.69
76728;BME280;65652;53.132;18.026;2023-03-05T13:47:17;100211.33;;;10.58;47.56
76728;BME280;65652;53.132;18.026;2023-03-05T13:49:44;100200.78;;;12.17;46.07
76728;BME280;65652;53.132;18.026;2023-03-05T13:52:29;100197.05;;;13.83;43.49
76728;BME280;65652;53.132;18.026;2023-03-05T13:54:58;100192.44;;;14.30;39.46
76728;BME280;65652;53.132;18.026;2023-03-05T13:57:31;100202.92;;;13.92;38.44
76728;BME280;65652;53.132;18.026;2023-03-05T13:59:58;100197.64;;;14.21;36.97
76728;BME280;65652;53.132;18.026;2023-03-05T14:02:26;100198.44;;;13.60;38.32
76728;BME280;65652;53.132;18.026;2023-03-05T14:04:54;100194.77;;;13.94;37.87
76728;BME280;65652;53.132;18.026;2023-03-05T14:07:40;100189.23;;;14.05;38.95
76728;BME280;65652;53.132;18.026;2023-03-05T14:12:52;100188.85;;;12.30;40.01
76728;BME280;65652;53.132;18.026;2023-03-05T14:15:30;100189.08;;;12.01;39.62